createdAt,value
2018-10-12T00:00:33.506Z,29.70
2018-10-12T00:01:33.481Z,27.90
2018-10-12T00:02:33.425Z,27.80
2018-10-12T00:03:33.393Z,29.90
2018-10-12T00:04:33.344Z,29.00
2018-10-12T00:05:33.304Z,28.60
2018-10-12T00:06:33.284Z,29.40
2018-10-12T00:07:33.243Z,30.10
2018-10-12T00:08:33.249Z,30.70
2018-10-12T00:09:33.156Z,29.10
2018-10-12T00:10:33.113Z,27.60
2018-10-12T00:11:33.082Z,30.50
2018-10-12T00:12:33.019Z,28.10
2018-10-12T00:13:32.982Z,27.70
2018-10-12T00:14:32.929Z,29.20
2018-10-12T00:15:32.898Z,27.00
2018-10-12T00:16:32.873Z,29.20
2018-10-12T00:17:32.825Z,27.10
2018-10-12T00:18:32.799Z,29.50
2018-10-12T00:19:32.745Z,29.40
2018-10-12T00:20:32.697Z,26.40
2018-10-12T00:21:32.682Z,27.20
2018-10-12T00:22:32.626Z,27.90
2018-10-12T00:25:04.445Z,27.50
2018-10-12T00:26:04.352Z,28.10
2018-10-12T00:27:57.412Z,26.60
2018-10-12T00:28:57.309Z,27.90
2018-10-12T00:30:51.928Z,29.00
2018-10-12T00:31:51.812Z,29.20
2018-10-12T00:33:44.884Z,27.80
2018-10-12T00:34:44.777Z,30.30
2018-10-12T00:36:37.808Z,31.80
2018-10-12T00:37:37.734Z,27.70
2018-10-12T00:38:37.672Z,30.00
2018-10-12T00:39:37.652Z,29.50
2018-10-12T00:40:37.594Z,30.20
2018-10-12T00:41:37.564Z,33.20
2018-10-12T00:42:37.518Z,30.50
2018-10-12T00:43:37.462Z,31.40
2018-10-12T00:44:37.444Z,31.30
2018-10-12T00:45:37.392Z,33.10
2018-10-12T00:46:37.345Z,28.60
2018-10-12T00:47:37.305Z,30.70
2018-10-12T00:48:37.286Z,31.20
2018-10-12T00:49:37.227Z,31.50
2018-10-12T00:50:37.194Z,31.40
2018-10-12T00:51:37.151Z,29.60
2018-10-12T00:52:37.134Z,29.50
2018-10-12T00:53:37.065Z,32.70
2018-10-12T00:54:37.038Z,32.90
2018-10-12T00:55:36.983Z,30.20
2018-10-12T00:56:36.959Z,29.10
2018-10-12T00:57:36.936Z,30.20
2018-10-12T00:58:36.865Z,30.00
2018-10-12T00:59:36.826Z,31.40
2018-10-12T01:00:36.838Z,30.70
2018-10-12T01:01:36.747Z,30.00
2018-10-12T01:02:36.695Z,30.50
2018-10-12T01:03:36.671Z,30.00
2018-10-12T01:04:36.637Z,30.70
2018-10-12T01:05:36.604Z,31.00
2018-10-12T01:06:36.547Z,31.60
2018-10-12T01:07:36.598Z,32.70
2018-10-12T01:08:36.460Z,31.10
2018-10-12T01:09:36.438Z,31.20
2018-10-12T01:10:36.407Z,31.40
2018-10-12T01:11:36.341Z,30.60
2018-10-12T01:12:36.325Z,31.70
2018-10-12T01:13:36.257Z,31.20
2018-10-12T01:14:36.246Z,32.50
2018-10-12T01:15:36.194Z,33.30
2018-10-12T01:16:36.166Z,33.50
2018-10-12T01:17:36.122Z,32.80
2018-10-12T01:18:36.059Z,33.80
2018-10-12T01:19:36.040Z,31.70
2018-10-12T01:20:36.016Z,32.30
2018-10-12T01:21:35.971Z,31.80
2018-10-12T01:22:35.920Z,32.60
2018-10-12T01:23:35.872Z,33.20
2018-10-12T01:24:35.828Z,32.00
2018-10-12T01:25:35.789Z,31.40
2018-10-12T01:26:35.757Z,33.00
2018-10-12T01:27:35.718Z,30.80
2018-10-12T01:28:35.687Z,33.30
2018-10-12T01:29:35.633Z,33.80
2018-10-12T01:30:35.589Z,34.80
2018-10-12T01:31:35.540Z,30.60
2018-10-12T01:32:35.543Z,31.80
2018-10-12T01:33:35.471Z,32.10
2018-10-12T01:34:35.444Z,32.70
2018-10-12T01:35:35.395Z,32.90
2018-10-12T01:36:35.363Z,32.30
2018-10-12T01:37:35.308Z,31.60
2018-10-12T01:38:35.279Z,30.70
2018-10-12T01:39:35.243Z,32.10
2018-10-12T01:40:35.187Z,32.70
2018-10-12T01:41:35.175Z,29.40
2018-10-12T01:42:35.113Z,32.80
2018-10-12T01:43:35.095Z,30.30
2018-10-12T01:44:35.044Z,32.50
2018-10-12T01:45:35.013Z,32.90
2018-10-12T01:46:34.962Z,32.70
2018-10-12T01:47:34.920Z,31.00
2018-10-12T01:48:34.874Z,32.00
2018-10-12T01:49:34.854Z,30.50
2018-10-12T01:50:34.798Z,31.30
2018-10-12T01:51:34.759Z,31.80
2018-10-12T01:52:34.719Z,31.70
2018-10-12T01:53:34.677Z,31.90
2018-10-12T01:54:34.652Z,31.60
2018-10-12T01:55:34.604Z,30.10
2018-10-12T01:56:34.559Z,31.00
2018-10-12T01:57:34.526Z,31.20
2018-10-12T01:58:34.471Z,28.30
2018-10-12T01:59:34.447Z,30.50
2018-10-12T02:00:34.395Z,31.40
2018-10-12T02:01:34.365Z,31.30
2018-10-12T02:02:34.353Z,32.30
2018-10-12T02:03:34.297Z,32.20
2018-10-12T02:04:34.246Z,31.10
2018-10-12T02:05:34.205Z,31.30
2018-10-12T02:06:34.160Z,32.20
2018-10-12T02:07:34.123Z,31.90
2018-10-12T02:08:34.081Z,30.90
2018-10-12T02:09:34.045Z,31.00
2018-10-12T02:10:34.013Z,30.10
2018-10-12T02:11:33.971Z,30.90
2018-10-12T02:12:33.935Z,31.90
2018-10-12T02:13:33.910Z,31.80
2018-10-12T02:14:33.849Z,30.80
2018-10-12T02:15:33.813Z,31.10
2018-10-12T02:16:33.777Z,30.50
2018-10-12T02:17:33.750Z,31.80
2018-10-12T02:18:33.702Z,29.40
2018-10-12T02:19:33.669Z,31.80
2018-10-12T02:20:33.628Z,29.10
2018-10-12T02:21:33.582Z,30.40
2018-10-12T02:22:33.528Z,30.40
2018-10-12T02:23:33.493Z,30.60
2018-10-12T02:24:33.458Z,30.20
2018-10-12T02:25:33.428Z,30.50
2018-10-12T02:26:33.381Z,29.20
2018-10-12T02:27:33.383Z,29.80
2018-10-12T02:28:33.329Z,29.80
2018-10-12T02:29:33.283Z,30.10
2018-10-12T02:30:33.225Z,29.40
2018-10-12T02:31:33.176Z,30.20
2018-10-12T02:32:33.138Z,28.10
2018-10-12T02:33:33.102Z,28.60
2018-10-12T02:34:33.079Z,30.90
2018-10-12T02:35:33.038Z,30.80
2018-10-12T02:36:32.987Z,28.10
2018-10-12T02:37:32.987Z,29.30
2018-10-12T02:38:32.933Z,28.10
2018-10-12T02:39:32.887Z,28.80
2018-10-12T02:40:32.857Z,29.60
2018-10-12T02:41:32.807Z,29.40
2018-10-12T02:42:32.777Z,29.30
2018-10-12T02:43:32.716Z,29.50
2018-10-12T02:44:32.691Z,29.60
2018-10-12T02:45:32.642Z,29.20
2018-10-12T02:46:32.615Z,29.50
2018-10-12T02:47:32.575Z,28.90
2018-10-12T02:48:32.521Z,29.60
2018-10-12T02:49:32.492Z,28.50
2018-10-12T02:50:32.448Z,29.60
2018-10-12T02:51:32.406Z,28.80
2018-10-12T02:52:32.377Z,29.40
2018-10-12T02:53:32.331Z,29.00
2018-10-12T02:54:32.293Z,28.60
2018-10-12T02:55:32.321Z,29.30
2018-10-12T02:56:32.219Z,29.50
2018-10-12T02:57:32.167Z,29.60
2018-10-12T02:58:32.131Z,28.10
2018-10-12T02:59:32.117Z,27.70
2018-10-12T03:00:32.108Z,27.70
2018-10-12T03:01:32.023Z,27.50
2018-10-12T03:02:31.982Z,27.90
2018-10-12T03:03:31.956Z,27.60
2018-10-12T03:04:31.911Z,27.60
2018-10-12T03:05:31.859Z,26.70
2018-10-12T03:06:31.826Z,27.00
2018-10-12T03:07:31.816Z,27.50
2018-10-12T03:08:31.749Z,26.90
2018-10-12T03:09:31.723Z,28.60
2018-10-12T03:10:31.694Z,27.90
2018-10-12T03:11:31.642Z,28.10
2018-10-12T03:12:31.618Z,28.50
2018-10-12T03:13:31.570Z,27.30
2018-10-12T03:14:31.550Z,27.40
2018-10-12T03:15:31.503Z,27.20
2018-10-12T03:16:31.477Z,27.30
2018-10-12T03:17:31.430Z,26.50
2018-10-12T03:18:31.441Z,26.60
2018-10-12T03:19:31.362Z,26.70
2018-10-12T03:20:31.330Z,27.50
2018-10-12T03:21:31.251Z,27.00
2018-10-12T03:22:31.241Z,27.20
2018-10-12T03:23:31.195Z,27.50
2018-10-12T03:24:31.158Z,24.40
2018-10-12T03:25:31.105Z,24.90
2018-10-12T03:26:31.081Z,25.60
2018-10-12T03:27:31.036Z,26.80
2018-10-12T03:28:31.012Z,27.30
2018-10-12T03:29:30.978Z,27.80
2018-10-12T03:30:30.925Z,27.30
2018-10-12T03:31:30.885Z,26.10
2018-10-12T03:32:30.846Z,26.40
2018-10-12T03:33:30.811Z,24.10
2018-10-12T03:34:30.780Z,24.90
2018-10-12T03:35:30.728Z,25.10
2018-10-12T03:36:30.677Z,25.30
2018-10-12T03:37:30.699Z,23.80
2018-10-12T03:38:30.630Z,22.80
2018-10-12T03:39:30.576Z,23.40
2018-10-12T03:40:30.557Z,22.30
2018-10-12T03:41:30.482Z,22.20
2018-10-12T03:42:30.458Z,22.70
2018-10-12T03:43:30.428Z,23.10
2018-10-12T03:44:30.418Z,25.50
2018-10-12T03:45:30.372Z,23.80
2018-10-12T03:46:30.361Z,25.10
2018-10-12T03:47:30.264Z,24.60
2018-10-12T03:48:30.223Z,24.20
2018-10-12T03:49:30.183Z,24.40
2018-10-12T03:50:30.160Z,24.00
2018-10-12T03:51:30.182Z,23.90
2018-10-12T03:52:30.088Z,23.70
2018-10-12T03:53:30.041Z,22.60
2018-10-12T03:54:30.003Z,22.00
2018-10-12T03:55:29.963Z,22.20
2018-10-12T03:56:29.919Z,22.60
2018-10-12T03:57:29.880Z,21.80
2018-10-12T03:58:29.859Z,21.20
2018-10-12T03:59:29.811Z,20.60
2018-10-12T04:00:29.777Z,21.00
2018-10-12T04:01:29.731Z,20.80
2018-10-12T04:02:29.725Z,20.40
2018-10-12T04:03:29.659Z,22.90
2018-10-12T04:04:29.632Z,21.20
2018-10-12T04:05:29.608Z,22.70
2018-10-12T04:06:29.539Z,19.80
2018-10-12T04:07:29.519Z,20.50
2018-10-12T04:08:29.469Z,21.50
2018-10-12T04:09:29.440Z,21.40
2018-10-12T04:10:29.400Z,22.90
2018-10-12T04:11:29.365Z,22.40
2018-10-12T04:12:29.320Z,20.00
2018-10-12T04:13:29.327Z,19.90
2018-10-12T04:14:29.253Z,19.80
2018-10-12T04:15:29.206Z,19.30
2018-10-12T04:16:29.180Z,19.80
2018-10-12T04:17:29.155Z,19.60
2018-10-12T04:18:29.095Z,20.10
2018-10-12T04:19:29.064Z,19.80
2018-10-12T04:20:29.018Z,20.60
2018-10-12T04:21:28.981Z,19.70
2018-10-12T04:22:28.948Z,20.40
2018-10-12T04:23:28.907Z,20.90
2018-10-12T04:24:28.870Z,20.60
2018-10-12T04:25:28.845Z,19.50
2018-10-12T04:26:28.786Z,20.00
2018-10-12T04:27:28.764Z,19.50
2018-10-12T04:28:28.730Z,19.90
2018-10-12T04:29:28.678Z,21.10
2018-10-12T04:30:28.660Z,21.20
2018-10-12T04:31:28.607Z,20.50
2018-10-12T04:32:28.570Z,19.90
2018-10-12T04:33:28.528Z,21.00
2018-10-12T04:34:28.494Z,20.30
2018-10-12T04:35:28.461Z,20.60
2018-10-12T04:36:28.424Z,19.80
2018-10-12T04:37:28.392Z,20.20
2018-10-12T04:38:28.348Z,19.60
2018-10-12T04:39:28.354Z,20.10
2018-10-12T04:40:28.257Z,19.40
2018-10-12T04:41:28.231Z,20.20
2018-10-12T04:42:29.721Z,19.20
2018-10-12T04:43:28.159Z,20.10
2018-10-12T04:44:28.141Z,18.80
2018-10-12T04:45:28.075Z,17.90
2018-10-12T04:46:28.069Z,18.80
2018-10-12T04:47:28.006Z,18.80
2018-10-12T04:48:27.998Z,20.50
2018-10-12T04:49:27.926Z,20.00
2018-10-12T04:50:27.917Z,22.50
2018-10-12T04:51:27.880Z,23.00
2018-10-12T04:52:27.826Z,22.30
2018-10-12T04:53:27.795Z,20.70
2018-10-12T04:54:27.749Z,19.30
2018-10-12T04:55:27.721Z,19.10
2018-10-12T04:56:27.678Z,19.80
2018-10-12T04:57:27.646Z,18.80
2018-10-12T04:58:27.604Z,18.80
2018-10-12T04:59:27.553Z,19.40
2018-10-12T05:00:27.519Z,21.10
2018-10-12T05:01:27.475Z,21.20
2018-10-12T05:02:27.443Z,22.20
2018-10-12T05:03:27.421Z,21.50
2018-10-12T05:04:27.365Z,22.00
2018-10-12T05:05:27.345Z,20.50
2018-10-12T05:06:27.303Z,19.80
2018-10-12T05:07:27.257Z,20.30
2018-10-12T05:08:27.222Z,21.40
2018-10-12T05:09:27.202Z,21.60
2018-10-12T05:10:27.143Z,20.90
2018-10-12T05:11:27.118Z,22.60
2018-10-12T05:12:27.075Z,21.60
2018-10-12T05:13:27.032Z,20.90
2018-10-12T05:14:26.979Z,21.00
2018-10-12T05:15:27.643Z,24.00
2018-10-12T05:16:26.917Z,23.20
2018-10-12T05:17:26.865Z,23.40
2018-10-12T05:18:26.839Z,21.80
2018-10-12T05:19:26.829Z,22.40
2018-10-12T05:20:26.758Z,22.20
2018-10-12T05:21:26.734Z,22.10
2018-10-12T05:22:26.687Z,24.80
2018-10-12T05:23:26.642Z,23.80
2018-10-12T05:24:26.616Z,24.60
2018-10-12T05:25:26.595Z,23.40
2018-10-12T05:26:26.549Z,23.30
2018-10-12T05:27:26.517Z,24.50
2018-10-12T05:28:26.461Z,23.30
2018-10-12T05:29:26.427Z,23.20
2018-10-12T05:30:26.378Z,24.90
2018-10-12T05:31:26.344Z,23.60
2018-10-12T05:32:26.308Z,22.90
2018-10-12T05:33:26.276Z,22.70
2018-10-12T05:34:26.221Z,25.00
2018-10-12T05:35:26.193Z,25.10
2018-10-12T05:36:26.160Z,25.70
2018-10-12T05:37:26.129Z,23.80
2018-10-12T05:38:26.083Z,22.60
2018-10-12T05:39:26.046Z,23.90
2018-10-12T05:40:26.004Z,24.60
2018-10-12T05:41:25.958Z,25.10
2018-10-12T05:42:25.924Z,24.30
2018-10-12T05:43:26.021Z,24.40
2018-10-12T05:44:25.854Z,25.30
2018-10-12T05:45:25.824Z,25.90
2018-10-12T05:46:25.786Z,27.60
2018-10-12T05:47:25.745Z,26.50
2018-10-12T05:48:25.702Z,26.50
2018-10-12T05:49:25.673Z,26.20
2018-10-12T05:50:25.628Z,27.00
2018-10-12T05:51:25.621Z,26.30
2018-10-12T05:52:25.599Z,27.80
2018-10-12T05:53:25.516Z,26.70
2018-10-12T05:54:25.476Z,26.40
2018-10-12T05:55:25.457Z,23.70
2018-10-12T05:56:25.399Z,22.60
2018-10-12T05:57:25.361Z,23.70
2018-10-12T05:58:25.366Z,23.30
2018-10-12T05:59:25.322Z,24.70
2018-10-12T06:00:25.280Z,24.90
2018-10-12T06:01:25.314Z,23.50
2018-10-12T06:02:25.191Z,22.50
2018-10-12T06:03:25.156Z,23.20
2018-10-12T06:04:25.105Z,23.50
2018-10-12T06:05:25.066Z,22.40
2018-10-12T06:06:25.042Z,23.50
2018-10-12T06:07:25.000Z,23.60
2018-10-12T06:08:24.976Z,24.90
2018-10-12T06:09:24.996Z,27.00
2018-10-12T06:10:24.924Z,25.20
2018-10-12T06:11:24.898Z,25.40
2018-10-12T06:12:24.936Z,25.30
2018-10-12T06:13:24.768Z,26.50
2018-10-12T06:14:24.721Z,26.20
2018-10-12T06:15:24.707Z,28.00
2018-10-12T06:16:24.668Z,28.00
2018-10-12T06:17:24.612Z,28.90
2018-10-12T06:18:24.574Z,29.10
2018-10-12T06:19:24.549Z,26.40
2018-10-12T06:20:24.551Z,26.90
2018-10-12T06:21:24.498Z,26.60
2018-10-12T06:22:24.419Z,27.30
2018-10-12T06:23:24.416Z,26.90
2018-10-12T06:24:24.361Z,25.80
2018-10-12T06:25:24.312Z,25.70
2018-10-12T06:26:24.272Z,25.80
2018-10-12T06:27:24.249Z,29.20
2018-10-12T06:28:24.190Z,25.80
2018-10-12T06:29:24.150Z,24.20
2018-10-12T06:30:24.141Z,25.40
2018-10-12T06:31:24.107Z,26.80
2018-10-12T06:32:24.053Z,25.50
2018-10-12T06:33:24.020Z,26.40
2018-10-12T06:34:23.962Z,27.80
2018-10-12T06:35:23.912Z,25.70
2018-10-12T06:36:23.891Z,27.60
2018-10-12T06:37:23.862Z,27.40
2018-10-12T06:38:23.802Z,28.30
2018-10-12T06:39:23.772Z,29.30
2018-10-12T06:40:23.731Z,27.80
2018-10-12T06:41:23.755Z,28.70
2018-10-12T06:42:23.638Z,28.90
2018-10-12T06:43:23.629Z,28.60
2018-10-12T06:44:23.581Z,29.00
2018-10-12T06:45:23.546Z,28.10
2018-10-12T06:46:23.581Z,27.90
2018-10-12T06:47:23.483Z,28.10
2018-10-12T06:48:23.428Z,27.90
2018-10-12T06:49:23.400Z,27.80
2018-10-12T06:50:23.353Z,26.80
2018-10-12T06:51:23.323Z,25.70
2018-10-12T06:52:23.265Z,25.20
2018-10-12T06:53:23.229Z,25.20
2018-10-12T06:54:23.191Z,26.60
2018-10-12T06:55:23.156Z,26.80
2018-10-12T06:56:23.126Z,24.60
2018-10-12T06:57:23.109Z,24.80
2018-10-12T06:58:23.057Z,24.50
2018-10-12T06:59:23.024Z,24.30
2018-10-12T07:00:22.987Z,23.60
2018-10-12T07:01:22.955Z,22.30
2018-10-12T07:02:22.897Z,22.40
2018-10-12T07:03:23.140Z,22.40
2018-10-12T07:04:22.844Z,21.80
2018-10-12T07:05:22.822Z,21.10
2018-10-12T07:06:22.780Z,20.30
2018-10-12T07:07:22.749Z,20.10
2018-10-12T07:08:22.708Z,20.00
2018-10-12T07:09:22.668Z,19.10
2018-10-12T07:10:22.629Z,19.10
2018-10-12T07:11:22.604Z,18.70
2018-10-12T07:12:22.592Z,18.60
2018-10-12T07:13:22.540Z,18.30
2018-10-12T07:14:22.498Z,18.90
2018-10-12T07:15:22.480Z,18.80
2018-10-12T07:16:22.451Z,18.30
2018-10-12T07:17:22.406Z,18.00
2018-10-12T07:18:22.399Z,18.00
2018-10-12T07:19:22.371Z,17.50
2018-10-12T07:20:22.329Z,17.10
2018-10-12T07:21:22.301Z,17.70
2018-10-12T07:22:22.270Z,17.10
2018-10-12T07:23:22.235Z,16.00
2018-10-12T07:24:22.212Z,16.30
2018-10-12T07:25:22.188Z,14.10
2018-10-12T07:26:22.147Z,13.10
2018-10-12T07:27:22.135Z,13.00
2018-10-12T07:28:22.097Z,13.40
2018-10-12T07:29:22.117Z,13.50
2018-10-12T07:30:22.042Z,13.80
2018-10-12T07:31:22.063Z,15.10
2018-10-12T07:32:22.027Z,13.80
2018-10-12T07:33:21.955Z,13.00
2018-10-12T07:34:21.920Z,12.30
2018-10-12T07:35:21.891Z,12.60
2018-10-12T07:36:21.856Z,11.90
2018-10-12T07:37:21.849Z,12.40
2018-10-12T07:38:22.008Z,12.00
2018-10-12T07:39:21.790Z,12.10
2018-10-12T07:40:21.744Z,12.50
2018-10-12T07:41:21.724Z,12.20
2018-10-12T07:42:21.724Z,12.00
2018-10-12T07:43:21.724Z,11.90
2018-10-12T07:44:21.649Z,12.30
2018-10-12T07:45:21.614Z,13.00
2018-10-12T07:46:21.614Z,12.70
2018-10-12T07:47:21.590Z,12.00
2018-10-12T07:48:21.590Z,11.50
2018-10-12T07:49:22.638Z,11.70
2018-10-12T07:50:21.469Z,11.70
2018-10-12T07:51:21.547Z,11.80
2018-10-12T07:52:21.436Z,11.60
2018-10-12T07:53:21.597Z,12.00
2018-10-12T07:54:21.387Z,11.90
2018-10-12T07:55:21.359Z,11.70
2018-10-12T07:56:21.323Z,11.20
2018-10-12T07:57:21.279Z,11.70
2018-10-12T07:58:21.270Z,11.40
2018-10-12T07:59:21.233Z,11.20
2018-10-12T08:00:21.314Z,10.90
2018-10-12T08:01:21.181Z,11.20
2018-10-12T08:02:21.149Z,10.90
2018-10-12T08:03:21.125Z,11.30
2018-10-12T08:04:21.102Z,11.30
2018-10-12T08:05:21.089Z,11.20
2018-10-12T08:06:21.150Z,10.80
2018-10-12T08:07:21.014Z,11.30
2018-10-12T08:08:20.984Z,11.00
2018-10-12T08:09:20.963Z,11.70
2018-10-12T08:10:20.935Z,10.90
2018-10-12T08:11:20.908Z,10.80
2018-10-12T08:12:20.883Z,11.40
2018-10-12T08:13:20.852Z,10.80
2018-10-12T08:14:20.864Z,10.50
2018-10-12T08:15:20.800Z,11.00
2018-10-12T08:16:20.810Z,11.20
2018-10-12T08:17:20.768Z,10.80
2018-10-12T08:18:20.765Z,10.70
2018-10-12T08:19:20.688Z,10.80
2018-10-12T08:20:20.711Z,11.40
2018-10-12T08:21:20.688Z,10.60
2018-10-12T08:22:20.629Z,10.40
2018-10-12T08:23:20.590Z,10.70
2018-10-12T08:24:20.583Z,10.20
2018-10-12T08:25:20.530Z,10.20
2018-10-12T08:26:20.506Z,10.90
2018-10-12T08:27:20.476Z,10.20
2018-10-12T08:28:20.474Z,9.50
2018-10-12T08:29:20.415Z,9.40
2018-10-12T08:30:20.414Z,9.90
2018-10-12T08:31:20.392Z,9.20
2018-10-12T08:32:20.355Z,8.90
2018-10-12T08:33:20.316Z,9.10
2018-10-12T08:34:20.291Z,8.90
2018-10-12T08:35:20.265Z,9.00
2018-10-12T08:36:20.267Z,8.40
2018-10-12T08:37:20.273Z,8.90
2018-10-12T08:38:20.186Z,8.50
2018-10-12T08:39:20.152Z,8.70
2018-10-12T08:40:20.126Z,8.40
2018-10-12T08:41:20.090Z,7.80
2018-10-12T08:42:20.069Z,8.00
2018-10-12T08:43:20.046Z,8.20
2018-10-12T08:44:20.027Z,7.90
2018-10-12T08:45:20.014Z,8.00
2018-10-12T08:46:19.977Z,7.90
2018-10-12T08:47:19.939Z,8.10
2018-10-12T08:48:19.940Z,7.30
2018-10-12T08:49:19.922Z,7.50
2018-10-12T08:50:19.872Z,7.40
2018-10-12T08:51:19.852Z,7.70
2018-10-12T08:52:19.834Z,7.80
2018-10-12T08:53:19.801Z,8.30
2018-10-12T08:54:19.783Z,8.10
2018-10-12T08:55:19.845Z,8.20
2018-10-12T08:56:19.835Z,7.70
2018-10-12T08:57:19.746Z,7.40
2018-10-12T08:58:19.702Z,7.80
2018-10-12T08:59:19.683Z,7.70
2018-10-12T09:00:19.663Z,7.70
2018-10-12T09:01:19.629Z,7.60
2018-10-12T09:02:19.609Z,7.70
2018-10-12T09:03:19.593Z,7.70
2018-10-12T09:04:19.565Z,6.90
2018-10-12T09:05:19.546Z,7.20
2018-10-12T09:06:19.525Z,7.30
2018-10-12T09:07:19.488Z,8.00
2018-10-12T09:08:19.489Z,8.10
2018-10-12T09:09:19.452Z,7.60
2018-10-12T09:10:19.450Z,7.50
2018-10-12T09:11:19.424Z,7.40
2018-10-12T09:12:19.411Z,7.90
2018-10-12T09:13:19.492Z,8.00
2018-10-12T09:14:19.367Z,7.90
2018-10-12T09:15:19.349Z,7.90
2018-10-12T09:16:19.369Z,7.50
2018-10-12T09:17:19.314Z,7.50
2018-10-12T09:18:19.335Z,7.60
2018-10-12T09:19:19.294Z,7.80
2018-10-12T09:20:19.387Z,8.50
2018-10-12T09:21:19.231Z,8.80
2018-10-12T09:22:19.310Z,9.20
2018-10-12T09:23:19.194Z,8.10
2018-10-12T09:24:19.172Z,7.90
2018-10-12T09:25:19.179Z,7.40
2018-10-12T09:26:19.137Z,8.30
2018-10-12T09:27:19.166Z,7.50
2018-10-12T09:28:19.115Z,7.20
2018-10-12T09:29:19.146Z,7.70
2018-10-12T09:30:19.128Z,7.60
2018-10-12T09:31:19.038Z,7.70
2018-10-12T09:32:19.059Z,7.80
2018-10-12T09:33:19.004Z,8.00
2018-10-12T09:34:19.005Z,7.50
2018-10-12T09:35:18.977Z,7.90
2018-10-12T09:36:18.960Z,7.80
2018-10-12T09:37:18.948Z,7.80
2018-10-12T09:38:18.927Z,7.60
2018-10-12T09:39:18.905Z,7.40
2018-10-12T09:40:18.906Z,8.60
2018-10-12T09:41:18.873Z,7.40
2018-10-12T09:42:18.855Z,7.10
2018-10-12T09:43:18.839Z,7.00
2018-10-12T09:44:18.821Z,7.30
2018-10-12T09:45:18.830Z,7.10
2018-10-12T09:46:18.790Z,7.80
2018-10-12T09:47:18.760Z,7.50
2018-10-12T09:48:18.747Z,7.20
2018-10-12T09:49:18.739Z,6.80
2018-10-12T09:50:18.730Z,6.80
2018-10-12T09:51:18.698Z,6.80
2018-10-12T09:52:18.712Z,6.90
2018-10-12T09:53:18.657Z,6.80
2018-10-12T09:54:18.693Z,7.70
2018-10-12T09:55:18.641Z,7.60
2018-10-12T09:56:18.617Z,7.30
2018-10-12T09:57:18.595Z,6.50
2018-10-12T09:58:18.603Z,7.40
2018-10-12T09:59:18.564Z,9.70
2018-10-12T10:00:18.558Z,7.10
2018-10-12T10:01:18.533Z,7.70
2018-10-12T10:02:18.722Z,7.20
2018-10-12T10:03:18.502Z,7.60
2018-10-12T10:04:18.477Z,7.20
2018-10-12T10:05:18.474Z,7.10
2018-10-12T10:06:18.454Z,6.80
2018-10-12T10:07:18.424Z,6.70
2018-10-12T10:08:18.533Z,7.30
2018-10-12T10:09:18.397Z,7.40
2018-10-12T10:10:18.383Z,7.00
2018-10-12T10:11:18.359Z,7.00
2018-10-12T10:12:18.349Z,6.80
2018-10-12T10:13:18.329Z,6.40
2018-10-12T10:14:18.324Z,6.90
2018-10-12T10:15:18.300Z,7.00
2018-10-12T10:16:18.284Z,7.60
2018-10-12T10:17:18.287Z,7.10
2018-10-12T10:18:18.261Z,7.10
2018-10-12T10:19:18.257Z,6.90
2018-10-12T10:20:18.342Z,7.70
2018-10-12T10:21:18.196Z,7.40
2018-10-12T10:22:18.228Z,7.50
2018-10-12T10:23:18.560Z,7.60
2018-10-12T10:24:18.157Z,7.00
2018-10-12T10:25:18.142Z,7.20
2018-10-12T10:26:18.112Z,6.80
2018-10-12T10:27:18.096Z,6.30
2018-10-12T10:28:18.092Z,6.50
2018-10-12T10:29:18.105Z,6.90
2018-10-12T10:30:18.061Z,7.00
2018-10-12T10:31:18.034Z,7.10
2018-10-12T10:32:18.084Z,6.90
2018-10-12T10:33:18.008Z,6.40
2018-10-12T10:34:17.982Z,6.60
2018-10-12T10:35:17.965Z,6.70
2018-10-12T10:36:17.957Z,6.90
2018-10-12T10:37:17.928Z,6.70
2018-10-12T10:38:17.909Z,6.80
2018-10-12T10:39:17.888Z,6.40
2018-10-12T10:40:17.882Z,6.20
2018-10-12T10:41:17.862Z,6.00
2018-10-12T10:42:17.852Z,6.70
2018-10-12T10:43:17.826Z,6.50
2018-10-12T10:44:17.816Z,6.00
2018-10-12T10:45:17.797Z,6.40
2018-10-12T10:46:17.828Z,5.70
2018-10-12T10:47:17.768Z,5.60
2018-10-12T10:48:17.750Z,5.90
2018-10-12T10:49:17.737Z,5.80
2018-10-12T10:50:17.717Z,5.60
2018-10-12T10:51:17.701Z,5.40
2018-10-12T10:52:17.685Z,5.30
2018-10-12T10:53:17.672Z,5.40
2018-10-12T10:54:17.678Z,5.70
2018-10-12T10:55:17.637Z,6.10
2018-10-12T10:56:17.632Z,6.20
2018-10-12T10:57:17.632Z,6.10
2018-10-12T10:58:17.591Z,5.60
2018-10-12T10:59:17.559Z,6.00
2018-10-12T11:00:17.572Z,8.40
2018-10-12T11:01:17.535Z,7.30
2018-10-12T11:02:17.511Z,6.20
2018-10-12T11:03:17.490Z,6.30
2018-10-12T11:04:17.481Z,6.20
2018-10-12T11:05:17.466Z,7.10
2018-10-12T11:06:17.476Z,6.40
2018-10-12T11:07:17.429Z,7.00
2018-10-12T11:08:17.432Z,6.40
2018-10-12T11:09:17.397Z,6.80
2018-10-12T11:10:17.384Z,6.60
2018-10-12T11:11:17.360Z,6.40
2018-10-12T11:12:17.407Z,6.40
2018-10-12T11:13:17.343Z,5.50
2018-10-12T11:14:17.316Z,5.70
2018-10-12T11:15:17.380Z,5.90
2018-10-12T11:16:17.307Z,5.50
2018-10-12T11:17:17.255Z,6.00
2018-10-12T11:18:17.293Z,5.90
2018-10-12T11:19:17.224Z,6.20
2018-10-12T11:20:17.225Z,6.10
2018-10-12T11:21:17.212Z,5.90
2018-10-12T11:22:17.165Z,6.00
2018-10-12T11:23:17.194Z,6.10
2018-10-12T11:24:17.155Z,5.80
2018-10-12T11:25:17.135Z,6.40
2018-10-12T11:26:17.136Z,5.70
2018-10-12T11:27:17.089Z,5.70
2018-10-12T11:28:17.159Z,6.70
2018-10-12T11:29:17.061Z,6.20
2018-10-12T11:30:17.193Z,6.50
2018-10-12T11:31:17.018Z,6.70
2018-10-12T11:32:16.992Z,6.20
2018-10-12T11:33:16.970Z,5.90
2018-10-12T11:34:16.959Z,7.10
2018-10-12T11:35:16.941Z,6.30
2018-10-12T11:36:16.918Z,6.40
2018-10-12T11:37:16.912Z,6.20
2018-10-12T11:38:16.904Z,6.30
2018-10-12T11:39:16.878Z,6.60
2018-10-12T11:40:16.850Z,6.80
2018-10-12T11:41:16.842Z,6.40
2018-10-12T11:42:16.812Z,6.20
2018-10-12T11:43:16.802Z,6.50
2018-10-12T11:44:16.774Z,7.10
2018-10-12T11:45:16.778Z,6.60
2018-10-12T11:46:16.734Z,6.50
2018-10-12T11:47:16.754Z,6.60
2018-10-12T11:48:16.712Z,6.30
2018-10-12T11:49:16.692Z,6.60
2018-10-12T11:50:16.690Z,6.50
2018-10-12T11:51:16.663Z,6.20
2018-10-12T11:52:16.747Z,6.90
2018-10-12T11:53:16.617Z,7.40
2018-10-12T11:54:16.606Z,7.40
2018-10-12T11:55:16.655Z,6.60
2018-10-12T11:56:16.575Z,6.20
2018-10-12T11:57:16.575Z,6.70
2018-10-12T11:58:16.569Z,6.40
2018-10-12T11:59:16.518Z,6.50
2018-10-12T12:00:16.498Z,6.30
2018-10-12T12:01:16.471Z,6.50
2018-10-12T12:02:16.548Z,6.50
2018-10-12T12:03:16.469Z,6.80
2018-10-12T12:04:16.419Z,6.00
2018-10-12T12:05:16.391Z,5.90
2018-10-12T12:06:16.378Z,6.00
2018-10-12T12:07:16.459Z,6.40
2018-10-12T12:08:16.337Z,6.10
2018-10-12T12:09:16.321Z,6.40
2018-10-12T12:10:16.318Z,6.90
2018-10-12T12:11:16.296Z,6.50
2018-10-12T12:12:16.262Z,6.10
2018-10-12T12:13:16.243Z,5.80
2018-10-12T12:14:16.226Z,6.30
2018-10-12T12:15:16.215Z,5.90
2018-10-12T12:16:16.202Z,5.90
2018-10-12T12:17:16.162Z,5.50
2018-10-12T12:18:16.166Z,5.70
2018-10-12T12:19:16.182Z,6.30
2018-10-12T12:20:16.130Z,5.90
2018-10-12T12:21:16.093Z,5.70
2018-10-12T12:22:16.076Z,5.80
2018-10-12T12:23:16.082Z,5.50
2018-10-12T12:24:16.035Z,6.00
2018-10-12T12:25:16.014Z,5.60
2018-10-12T12:26:16.018Z,5.90
2018-10-12T12:27:15.993Z,6.30
2018-10-12T12:28:16.018Z,5.90
2018-10-12T12:29:15.937Z,5.40
2018-10-12T12:30:15.923Z,5.50
2018-10-12T12:31:15.897Z,5.10
2018-10-12T12:32:15.901Z,5.30
2018-10-12T12:33:15.859Z,5.60
2018-10-12T12:34:15.849Z,5.60
2018-10-12T12:35:16.079Z,5.70
2018-10-12T12:36:16.041Z,5.60
2018-10-12T12:37:15.779Z,5.60
2018-10-12T12:38:15.749Z,5.90
2018-10-12T12:39:15.749Z,5.90
2018-10-12T12:40:15.712Z,5.80
2018-10-12T12:41:15.704Z,6.00
2018-10-12T12:42:15.674Z,5.80
2018-10-12T12:43:15.659Z,5.50
2018-10-12T12:44:15.637Z,5.60
2018-10-12T12:45:15.629Z,5.30
2018-10-12T12:46:15.592Z,5.40
2018-10-12T12:47:15.644Z,5.50
2018-10-12T12:48:15.860Z,5.50
2018-10-12T12:49:15.898Z,5.10
2018-10-12T12:50:15.539Z,5.20
2018-10-12T12:51:15.498Z,5.60
2018-10-12T12:52:15.479Z,5.40
2018-10-12T12:53:15.476Z,5.20
2018-10-12T12:54:15.443Z,5.40
2018-10-12T12:55:15.438Z,5.30
2018-10-12T12:56:15.397Z,5.70
2018-10-12T12:57:15.399Z,5.30
2018-10-12T12:58:15.351Z,5.30
2018-10-12T12:59:15.331Z,5.20
2018-10-12T13:00:15.375Z,5.80
2018-10-12T13:01:15.320Z,5.00
2018-10-12T13:02:15.301Z,5.10
2018-10-12T13:03:15.258Z,5.20
2018-10-12T13:04:15.238Z,5.30
2018-10-12T13:05:15.209Z,5.40
2018-10-12T13:06:15.265Z,5.20